sensor_id;sensor_type;location;lat;lon;timestamp;temperature;humidity
56308;DHT22;42217;50.422;7.210;2023-07-20T00:01:12;15.70;71.10
56308;DHT22;42217;50.422;7.210;2023-07-20T00:03:38;15.80;70.70
56308;DHT22;42217;50.422;7.210;2023-07-20T00:06:04;15.80;69.60
56308;DHT22;42217;50.422;7.210;2023-07-20T00:08:30;15.90;68.20
56308;DHT22;42217;50.422;7.210;2023-07-20T00:10:56;16.00;65.40
56308;DHT22;42217;50.422;7.210;2023-07-20T00:13:22;16.10;62.10
56308;DHT22;42217;50.422;7.210;2023-07-20T00:15:47;16.00;61.30
56308;DHT22;42217;50.422;7.210;2023-07-20T00:18:13;16.00;61.80
56308;DHT22;42217;50.422;7.210;2023-07-20T00:20:39;16.00;61.50
56308;DHT22;42217;50.422;7.210;2023-07-20T00:23:05;16.00;60.40
56308;DHT22;42217;50.422;7.210;2023-07-20T00:25:31;16.00;59.80
56308;DHT22;42217;50.422;7.210;2023-07-20T00:27:57;16.00;61.50
56308;DHT22;42217;50.422;7.210;2023-07-20T00:30:23;15.90;62.50
56308;DHT22;42217;50.422;7.210;2023-07-20T00:32:48;15.90;62.40
56308;DHT22;42217;50.422;7.210;2023-07-20T00:35:14;16.00;62.10
56308;DHT22;42217;50.422;7.210;2023-07-20T00:37:40;16.00;62.70
56308;DHT22;42217;50.422;7.210;2023-07-20T00:40:06;15.90;63.30
56308;DHT22;42217;50.422;7.210;2023-07-20T00:42:34;15.90;65.20
56308;DHT22;42217;50.422;7.210;2023-07-20T00:45:00;16.00;63.60
56308;DHT22;42217;50.422;7.210;2023-07-20T00:47:27;16.00;62.40
56308;DHT22;42217;50.422;7.210;2023-07-20T00:49:53;16.10;62.60
56308;DHT22;42217;50.422;7.210;2023-07-20T00:52:21;16.00;65.10
56308;DHT22;42217;50.422;7.210;2023-07-20T00:54:48;16.20;63.80
56308;DHT22;42217;50.422;7.210;2023-07-20T00:57:15;16.20;62.20
56308;DHT22;42217;50.422;7.210;2023-07-20T00:59:41;16.40;59.10
56308;DHT22;42217;50.422;7.210;2023-07-20T01:02:07;16.30;59.20
56308;DHT22;42217;50.422;7.210;2023-07-20T01:04:33;16.40;59.30
56308;DHT22;42217;50.422;7.210;2023-07-20T01:07:41;16.40;58.60
56308;DHT22;42217;50.422;7.210;2023-07-20T01:10:12;16.30;60.60
56308;DHT22;42217;50.422;7.210;2023-07-20T01:12:47;16.20;62.70
56308;DHT22;42217;50.422;7.210;2023-07-20T01:15:13;16.30;63.10
56308;DHT22;42217;50.422;7.210;2023-07-20T01:17:39;16.30;60.90
56308;DHT22;42217;50.422;7.210;2023-07-20T01:20:07;16.40;60.40
56308;DHT22;42217;50.422;7.210;2023-07-20T01:28:12;16.10;67.20
56308;DHT22;42217;50.422;7.210;2023-07-20T01:33:44;15.80;76.10
56308;DHT22;42217;50.422;7.210;2023-07-20T01:36:11;15.80;79.30
56308;DHT22;42217;50.422;7.210;2023-07-20T01:38:38;16.00;77.50
56308;DHT22;42217;50.422;7.210;2023-07-20T01:41:03;15.90;76.00
56308;DHT22;42217;50.422;7.210;2023-07-20T01:43:30;15.90;79.40
56308;DHT22;42217;50.422;7.210;2023-07-20T01:45:56;15.90;79.90
56308;DHT22;42217;50.422;7.210;2023-07-20T01:48:22;16.00;81.20
56308;DHT22;42217;50.422;7.210;2023-07-20T01:50:47;16.00;80.70
56308;DHT22;42217;50.422;7.210;2023-07-20T01:53:13;15.90;84.10
56308;DHT22;42217;50.422;7.210;2023-07-20T01:55:38;15.80;86.60
56308;DHT22;42217;50.422;7.210;2023-07-20T01:58:04;15.80;87.60
56308;DHT22;42217;50.422;7.210;2023-07-20T02:00:31;15.80;88.90
56308;DHT22;42217;50.422;7.210;2023-07-20T02:02:57;15.60;91.60
56308;DHT22;42217;50.422;7.210;2023-07-20T02:05:22;15.70;90.40
56308;DHT22;42217;50.422;7.210;2023-07-20T02:07:48;15.70;90.20
56308;DHT22;42217;50.422;7.210;2023-07-20T02:10:14;15.70;90.60
56308;DHT22;42217;50.422;7.210;2023-07-20T02:12:39;15.80;90.00
56308;DHT22;42217;50.422;7.210;2023-07-20T02:15:05;15.80;88.30
56308;DHT22;42217;50.422;7.210;2023-07-20T02:17:31;15.70;90.50
56308;DHT22;42217;50.422;7.210;2023-07-20T02:19:57;15.30;94.60
56308;DHT22;42217;50.422;7.210;2023-07-20T02:22:25;15.10;97.00
56308;DHT22;42217;50.422;7.210;2023-07-20T02:24:51;14.80;99.70
56308;DHT22;42217;50.422;7.210;2023-07-20T02:27:16;14.50;99.90
56308;DHT22;42217;50.422;7.210;2023-07-20T02:29:42;14.40;99.90
56308;DHT22;42217;50.422;7.210;2023-07-20T02:32:09;14.40;99.90
56308;DHT22;42217;50.422;7.210;2023-07-20T02:34:37;14.40;99.90
56308;DHT22;42217;50.422;7.210;2023-07-20T02:37:03;14.50;99.90
56308;DHT22;42217;50.422;7.210;2023-07-20T02:39:28;14.80;99.90
56308;DHT22;42217;50.422;7.210;2023-07-20T02:41:54;14.80;99.90
56308;DHT22;42217;50.422;7.210;2023-07-20T02:44:20;14.70;99.90
56308;DHT22;42217;50.422;7.210;2023-07-20T02:46:46;14.50;99.90
56308;DHT22;42217;50.422;7.210;2023-07-20T02:49:11;14.30;99.90
56308;DHT22;42217;50.422;7.210;2023-07-20T02:51:37;14.00;99.90
56308;DHT22;42217;50.422;7.210;2023-07-20T02:54:03;13.80;99.90
56308;DHT22;42217;50.422;7.210;2023-07-20T02:56:29;13.90;99.90
56308;DHT22;42217;50.422;7.210;2023-07-20T02:58:55;13.80;99.90
56308;DHT22;42217;50.422;7.210;2023-07-20T03:01:20;13.70;99.90
56308;DHT22;42217;50.422;7.210;2023-07-20T03:03:46;13.70;99.90
56308;DHT22;42217;50.422;7.210;2023-07-20T03:06:14;13.60;99.90
56308;DHT22;42217;50.422;7.210;2023-07-20T03:08:43;13.40;99.90
56308;DHT22;42217;50.422;7.210;2023-07-20T03:11:14;13.10;99.90
56308;DHT22;42217;50.422;7.210;2023-07-20T03:13:41;12.90;99.90
56308;DHT22;42217;50.422;7.210;2023-07-20T03:16:08;12.70;99.90
56308;DHT22;42217;50.422;7.210;2023-07-20T03:18:37;12.60;99.90
56308;DHT22;42217;50.422;7.210;2023-07-20T03:21:04;12.80;99.90
56308;DHT22;42217;50.422;7.210;2023-07-20T03:23:33;13.00;99.90
56308;DHT22;42217;50.422;7.210;2023-07-20T03:25:59;13.10;99.90
56308;DHT22;42217;50.422;7.210;2023-07-20T03:28:24;13.30;99.90
56308;DHT22;42217;50.422;7.210;2023-07-20T03:30:55;13.30;99.90
56308;DHT22;42217;50.422;7.210;2023-07-20T03:33:25;13.00;99.90
56308;DHT22;42217;50.422;7.210;2023-07-20T03:35:51;13.00;99.90
56308;DHT22;42217;50.422;7.210;2023-07-20T03:38:17;13.10;99.90
56308;DHT22;42217;50.422;7.210;2023-07-20T03:40:54;13.10;99.90
56308;DHT22;42217;50.422;7.210;2023-07-20T03:43:24;13.10;99.90
56308;DHT22;42217;50.422;7.210;2023-07-20T03:45:50;13.20;99.90
56308;DHT22;42217;50.422;7.210;2023-07-20T03:48:18;13.20;99.90
56308;DHT22;42217;50.422;7.210;2023-07-20T03:50:45;13.20;99.90
56308;DHT22;42217;50.422;7.210;2023-07-20T03:53:14;13.20;99.90
56308;DHT22;42217;50.422;7.210;2023-07-20T03:55:50;13.10;99.90
56308;DHT22;42217;50.422;7.210;2023-07-20T03:58:16;13.10;99.90
56308;DHT22;42217;50.422;7.210;2023-07-20T04:00:50;13.00;99.90
56308;DHT22;42217;50.422;7.210;2023-07-20T04:03:16;13.00;99.90
56308;DHT22;42217;50.422;7.210;2023-07-20T04:05:42;12.90;99.90
56308;DHT22;42217;50.422;7.210;2023-07-20T04:08:09;12.90;99.90
56308;DHT22;42217;50.422;7.210;2023-07-20T04:10:37;13.00;99.90
56308;DHT22;42217;50.422;7.210;2023-07-20T04:13:03;13.10;99.90
56308;DHT22;42217;50.422;7.210;2023-07-20T04:15:29;13.20;99.90
56308;DHT22;42217;50.422;7.210;2023-07-20T04:17:55;13.40;99.90
56308;DHT22;42217;50.422;7.210;2023-07-20T04:20:22;13.50;99.90
56308;DHT22;42217;50.422;7.210;2023-07-20T04:22:48;13.70;99.90
56308;DHT22;42217;50.422;7.210;2023-07-20T04:25:14;13.80;99.90
56308;DHT22;42217;50.422;7.210;2023-07-20T04:27:39;13.80;99.90
56308;DHT22;42217;50.422;7.210;2023-07-20T04:30:08;13.60;99.90
56308;DHT22;42217;50.422;7.210;2023-07-20T04:32:33;13.60;99.90
56308;DHT22;42217;50.422;7.210;2023-07-20T04:34:59;13.70;99.90
56308;DHT22;42217;50.422;7.210;2023-07-20T04:37:25;13.80;99.90
56308;DHT22;42217;50.422;7.210;2023-07-20T04:39:51;13.90;99.90
56308;DHT22;42217;50.422;7.210;2023-07-20T04:42:16;14.10;99.90
56308;DHT22;42217;50.422;7.210;2023-07-20T04:44:42;14.20;99.90
56308;DHT22;42217;50.422;7.210;2023-07-20T04:47:08;14.50;99.90
56308;DHT22;42217;50.422;7.210;2023-07-20T04:49:36;14.70;99.90
56308;DHT22;42217;50.422;7.210;2023-07-20T04:52:02;14.90;99.90
56308;DHT22;42217;50.422;7.210;2023-07-20T04:54:28;14.90;99.90
56308;DHT22;42217;50.422;7.210;2023-07-20T04:56:54;14.70;99.90
56308;DHT22;42217;50.422;7.210;2023-07-20T04:59:19;14.70;99.90
56308;DHT22;42217;50.422;7.210;2023-07-20T05:01:45;14.80;99.90
56308;DHT22;42217;50.422;7.210;2023-07-20T05:04:11;15.00;99.90
56308;DHT22;42217;50.422;7.210;2023-07-20T05:06:36;15.30;99.90
56308;DHT22;42217;50.422;7.210;2023-07-20T05:09:04;15.70;99.90
56308;DHT22;42217;50.422;7.210;2023-07-20T05:11:30;16.00;99.90
56308;DHT22;42217;50.422;7.210;2023-07-20T05:13:56;16.40;98.40
56308;DHT22;42217;50.422;7.210;2023-07-20T05:16:22;16.50;96.90
56308;DHT22;42217;50.422;7.210;2023-07-20T05:18:47;16.50;95.80
56308;DHT22;42217;50.422;7.210;2023-07-20T05:21:13;16.50;96.30
56308;DHT22;42217;50.422;7.210;2023-07-20T05:23:39;16.30;97.20
56308;DHT22;42217;50.422;7.210;2023-07-20T05:26:04;16.20;97.60
56308;DHT22;42217;50.422;7.210;2023-07-20T05:28:31;16.00;99.60
56308;DHT22;42217;50.422;7.210;2023-07-20T05:30:57;15.90;99.90
56308;DHT22;42217;50.422;7.210;2023-07-20T05:33:25;15.90;99.90
56308;DHT22;42217;50.422;7.210;2023-07-20T05:35:50;15.90;99.90
56308;DHT22;42217;50.422;7.210;2023-07-20T05:38:16;15.90;99.70
56308;DHT22;42217;50.422;7.210;2023-07-20T05:40:43;15.80;99.60
56308;DHT22;42217;50.422;7.210;2023-07-20T05:43:09;15.70;99.90
56308;DHT22;42217;50.422;7.210;2023-07-20T05:45:35;15.60;99.90
56308;DHT22;42217;50.422;7.210;2023-07-20T05:48:01;15.70;99.90
56308;DHT22;42217;50.422;7.210;2023-07-20T05:50:27;15.70;99.90
56308;DHT22;42217;50.422;7.210;2023-07-20T05:52:53;15.70;99.90
56308;DHT22;42217;50.422;7.210;2023-07-20T05:55:19;15.70;99.90
56308;DHT22;42217;50.422;7.210;2023-07-20T05:57:45;15.80;99.90
56308;DHT22;42217;50.422;7.210;2023-07-20T06:00:12;15.90;99.90
56308;DHT22;42217;50.422;7.210;2023-07-20T06:02:38;15.90;99.90
56308;DHT22;42217;50.422;7.210;2023-07-20T06:05:05;15.90;99.90
56308;DHT22;42217;50.422;7.210;2023-07-20T06:07:32;16.00;99.70
56308;DHT22;42217;50.422;7.210;2023-07-20T06:09:58;16.30;98.40
56308;DHT22;42217;50.422;7.210;2023-07-20T06:12:24;16.50;97.50
56308;DHT22;42217;50.422;7.210;2023-07-20T06:14:50;16.70;95.30
56308;DHT22;42217;50.422;7.210;2023-07-20T06:17:15;17.00;95.00
56308;DHT22;42217;50.422;7.210;2023-07-20T06:19:41;17.20;91.70
56308;DHT22;42217;50.422;7.210;2023-07-20T06:22:07;17.40;90.00
56308;DHT22;42217;50.422;7.210;2023-07-20T06:24:33;17.40;89.50
56308;DHT22;42217;50.422;7.210;2023-07-20T06:26:59;17.40;85.30
56308;DHT22;42217;50.422;7.210;2023-07-20T06:29:24;17.40;83.60
56308;DHT22;42217;50.422;7.210;2023-07-20T06:31:50;17.30;84.00
56308;DHT22;42217;50.422;7.210;2023-07-20T06:34:16;17.30;85.30
56308;DHT22;42217;50.422;7.210;2023-07-20T06:36:41;17.30;88.40
56308;DHT22;42217;50.422;7.210;2023-07-20T06:39:07;17.30;88.90
56308;DHT22;42217;50.422;7.210;2023-07-20T06:41:33;17.30;84.20
56308;DHT22;42217;50.422;7.210;2023-07-20T06:43:58;17.30;85.30
56308;DHT22;42217;50.422;7.210;2023-07-20T06:46:25;17.40;83.60
56308;DHT22;42217;50.422;7.210;2023-07-20T06:48:51;17.50;82.30
56308;DHT22;42217;50.422;7.210;2023-07-20T06:51:17;17.50;76.30
56308;DHT22;42217;50.422;7.210;2023-07-20T06:53:43;17.60;81.10
56308;DHT22;42217;50.422;7.210;2023-07-20T06:56:09;17.70;77.00
56308;DHT22;42217;50.422;7.210;2023-07-20T06:58:34;17.80;76.40
56308;DHT22;42217;50.422;7.210;2023-07-20T07:01:07;17.80;69.10
56308;DHT22;42217;50.422;7.210;2023-07-20T07:03:33;17.80;64.60
56308;DHT22;42217;50.422;7.210;2023-07-20T07:05:59;17.60;62.30
56308;DHT22;42217;50.422;7.210;2023-07-20T07:08:25;17.80;55.40
56308;DHT22;42217;50.422;7.210;2023-07-20T07:10:51;17.90;58.90
56308;DHT22;42217;50.422;7.210;2023-07-20T07:13:17;17.90;49.60
56308;DHT22;42217;50.422;7.210;2023-07-20T07:15:43;18.10;20.80
56308;DHT22;42217;50.422;7.210;2023-07-20T07:18:08;18.40;9.60
56308;DHT22;42217;50.422;7.210;2023-07-20T07:20:34;18.50;7.00
56308;DHT22;42217;50.422;7.210;2023-07-20T07:23:00;18.60;2.70
56308;DHT22;42217;50.422;7.210;2023-07-20T07:25:26;19.10;1.00
56308;DHT22;42217;50.422;7.210;2023-07-20T07:27:53;19.40;1.00
56308;DHT22;42217;50.422;7.210;2023-07-20T07:30:19;20.00;1.00
56308;DHT22;42217;50.422;7.210;2023-07-20T07:32:45;20.60;1.00
56308;DHT22;42217;50.422;7.210;2023-07-20T07:35:10;20.50;99.90
56308;DHT22;42217;50.422;7.210;2023-07-20T07:37:37;20.00;1.00
56308;DHT22;42217;50.422;7.210;2023-07-20T07:40:03;19.50;1.00
56308;DHT22;42217;50.422;7.210;2023-07-20T07:42:29;19.60;1.00
56308;DHT22;42217;50.422;7.210;2023-07-20T07:44:55;19.90;1.00
56308;DHT22;42217;50.422;7.210;2023-07-20T07:47:21;20.40;1.00
56308;DHT22;42217;50.422;7.210;2023-07-20T07:49:46;20.60;1.00
56308;DHT22;42217;50.422;7.210;2023-07-20T07:52:12;21.00;99.90
56308;DHT22;42217;50.422;7.210;2023-07-20T07:54:39;21.20;99.90
56308;DHT22;42217;50.422;7.210;2023-07-20T07:57:05;21.60;99.90
56308;DHT22;42217;50.422;7.210;2023-07-20T07:59:31;21.70;97.30
56308;DHT22;42217;50.422;7.210;2023-07-20T08:02:02;21.80;84.80
56308;DHT22;42217;50.422;7.210;2023-07-20T08:04:28;21.60;57.70
56308;DHT22;42217;50.422;7.210;2023-07-20T08:06:54;21.30;99.90
56308;DHT22;42217;50.422;7.210;2023-07-20T08:09:20;21.30;99.90
56308;DHT22;42217;50.422;7.210;2023-07-20T08:11:46;21.20;54.80
56308;DHT22;42217;50.422;7.210;2023-07-20T08:14:13;20.90;99.90
56308;DHT22;42217;50.422;7.210;2023-07-20T08:16:39;21.20;99.90
56308;DHT22;42217;50.422;7.210;2023-07-20T08:19:05;21.50;99.90
56308;DHT22;42217;50.422;7.210;2023-07-20T08:21:31;21.70;84.70
56308;DHT22;42217;50.422;7.210;2023-07-20T08:23:56;21.10;99.90
56308;DHT22;42217;50.422;7.210;2023-07-20T08:26:23;21.20;99.90
56308;DHT22;42217;50.422;7.210;2023-07-20T08:28:49;21.40;99.90
56308;DHT22;42217;50.422;7.210;2023-07-20T08:31:15;21.40;99.90
56308;DHT22;42217;50.422;7.210;2023-07-20T08:33:41;21.50;99.90
56308;DHT22;42217;50.422;7.210;2023-07-20T08:36:06;21.40;80.30
56308;DHT22;42217;50.422;7.210;2023-07-20T08:38:33;21.10;99.90
56308;DHT22;42217;50.422;7.210;2023-07-20T08:40:59;21.00;99.90
56308;DHT22;42217;50.422;7.210;2023-07-20T08:43:27;21.00;99.90
56308;DHT22;42217;50.422;7.210;2023-07-20T08:45:57;21.10;99.90
56308;DHT22;42217;50.422;7.210;2023-07-20T08:48:23;21.10;99.90
56308;DHT22;42217;50.422;7.210;2023-07-20T08:50:51;21.20;99.90
56308;DHT22;42217;50.422;7.210;2023-07-20T08:53:17;21.40;77.50
56308;DHT22;42217;50.422;7.210;2023-07-20T08:55:45;22.00;1.00
56308;DHT22;42217;50.422;7.210;2023-07-20T08:58:12;22.30;99.80
56308;DHT22;42217;50.422;7.210;2023-07-20T09:00:41;21.90;99.90
56308;DHT22;42217;50.422;7.210;2023-07-20T09:03:08;22.10;99.90
56308;DHT22;42217;50.422;7.210;2023-07-20T09:05:34;22.50;99.90
56308;DHT22;42217;50.422;7.210;2023-07-20T09:08:01;22.80;99.50
56308;DHT22;42217;50.422;7.210;2023-07-20T09:10:29;23.00;99.80
56308;DHT22;42217;50.422;7.210;2023-07-20T09:12:55;22.40;99.90
56308;DHT22;42217;50.422;7.210;2023-07-20T09:15:22;21.90;99.90
56308;DHT22;42217;50.422;7.210;2023-07-20T09:17:49;21.90;99.50
56308;DHT22;42217;50.422;7.210;2023-07-20T09:20:19;22.10;99.20
56308;DHT22;42217;50.422;7.210;2023-07-20T09:22:45;22.80;98.90
56308;DHT22;42217;50.422;7.210;2023-07-20T09:25:15;23.40;98.00
56308;DHT22;42217;50.422;7.210;2023-07-20T09:27:46;23.60;98.40
56308;DHT22;42217;50.422;7.210;2023-07-20T09:30:14;23.20;99.10
56308;DHT22;42217;50.422;7.210;2023-07-20T09:32:41;22.80;98.90
56308;DHT22;42217;50.422;7.210;2023-07-20T09:35:21;22.30;99.10
56308;DHT22;42217;50.422;7.210;2023-07-20T09:37:51;22.00;99.80
56308;DHT22;42217;50.422;7.210;2023-07-20T09:40:20;22.10;99.40
56308;DHT22;42217;50.422;7.210;2023-07-20T09:42:46;22.30;99.30
56308;DHT22;42217;50.422;7.210;2023-07-20T09:45:12;22.50;99.30
56308;DHT22;42217;50.422;7.210;2023-07-20T09:47:39;22.80;98.60
56308;DHT22;42217;50.422;7.210;2023-07-20T09:50:06;23.00;97.60
56308;DHT22;42217;50.422;7.210;2023-07-20T09:52:37;22.90;97.60
56308;DHT22;42217;50.422;7.210;2023-07-20T09:55:08;22.50;98.70
56308;DHT22;42217;50.422;7.210;2023-07-20T09:57:35;22.20;98.80
56308;DHT22;42217;50.422;7.210;2023-07-20T10:00:03;22.00;99.20
56308;DHT22;42217;50.422;7.210;2023-07-20T10:02:33;22.10;99.30
56308;DHT22;42217;50.422;7.210;2023-07-20T10:05:03;22.60;98.50
56308;DHT22;42217;50.422;7.210;2023-07-20T10:07:36;23.20;98.30
56308;DHT22;42217;50.422;7.210;2023-07-20T10:10:06;23.70;96.60
56308;DHT22;42217;50.422;7.210;2023-07-20T10:12:37;23.80;97.10
56308;DHT22;42217;50.422;7.210;2023-07-20T10:15:10;23.80;95.40
56308;DHT22;42217;50.422;7.210;2023-07-20T10:17:44;23.40;95.50
56308;DHT22;42217;50.422;7.210;2023-07-20T10:20:16;22.90;96.20
56308;DHT22;42217;50.422;7.210;2023-07-20T10:22:46;23.10;96.10
56308;DHT22;42217;50.422;7.210;2023-07-20T10:25:13;23.00;96.00
56308;DHT22;42217;50.422;7.210;2023-07-20T10:27:40;22.90;96.10
56308;DHT22;42217;50.422;7.210;2023-07-20T10:30:06;22.80;96.80
56308;DHT22;42217;50.422;7.210;2023-07-20T10:32:32;23.10;96.20
56308;DHT22;42217;50.422;7.210;2023-07-20T10:34:59;23.10;95.80
56308;DHT22;42217;50.422;7.210;2023-07-20T10:38:00;22.90;96.80
56308;DHT22;42217;50.422;7.210;2023-07-20T10:40:33;23.00;95.50
56308;DHT22;42217;50.422;7.210;2023-07-20T10:43:04;23.40;95.40
56308;DHT22;42217;50.422;7.210;2023-07-20T10:45:41;23.50;94.40
56308;DHT22;42217;50.422;7.210;2023-07-20T10:48:14;23.60;94.30
56308;DHT22;42217;50.422;7.210;2023-07-20T10:50:41;23.70;94.50
56308;DHT22;42217;50.422;7.210;2023-07-20T10:53:16;23.20;94.60
56308;DHT22;42217;50.422;7.210;2023-07-20T10:55:42;22.70;94.90
56308;DHT22;42217;50.422;7.210;2023-07-20T10:58:09;22.40;95.70
56308;DHT22;42217;50.422;7.210;2023-07-20T11:00:35;22.50;96.10
56308;DHT22;42217;50.422;7.210;2023-07-20T11:03:01;22.80;95.00
56308;DHT22;42217;50.422;7.210;2023-07-20T11:05:35;22.90;94.70
56308;DHT22;42217;50.422;7.210;2023-07-20T11:08:12;23.10;95.30
56308;DHT22;42217;50.422;7.210;2023-07-20T11:10:38;23.30;94.20
56308;DHT22;42217;50.422;7.210;2023-07-20T11:18:13;24.70;92.80
56308;DHT22;42217;50.422;7.210;2023-07-20T11:20:39;25.10;92.10
56308;DHT22;42217;50.422;7.210;2023-07-20T11:23:05;24.90;90.30
56308;DHT22;42217;50.422;7.210;2023-07-20T11:25:40;24.60;95.80
56308;DHT22;42217;50.422;7.210;2023-07-20T11:28:07;24.40;99.90
56308;DHT22;42217;50.422;7.210;2023-07-20T11:30:34;24.30;46.40
56308;DHT22;42217;50.422;7.210;2023-07-20T11:33:00;24.10;99.90
56308;DHT22;42217;50.422;7.210;2023-07-20T11:35:26;24.10;99.90
56308;DHT22;42217;50.422;7.210;2023-07-20T11:37:51;24.00;65.70
56308;DHT22;42217;50.422;7.210;2023-07-20T11:40:17;23.90;99.80
56308;DHT22;42217;50.422;7.210;2023-07-20T11:42:43;24.10;91.20
56308;DHT22;42217;50.422;7.210;2023-07-20T11:45:09;24.40;72.10
56308;DHT22;42217;50.422;7.210;2023-07-20T11:47:40;25.00;1.00
56308;DHT22;42217;50.422;7.210;2023-07-20T11:50:07;25.30;1.00
56308;DHT22;42217;50.422;7.210;2023-07-20T11:52:33;25.60;99.90
56308;DHT22;42217;50.422;7.210;2023-07-20T11:54:59;26.10;99.90
56308;DHT22;42217;50.422;7.210;2023-07-20T11:57:25;26.20;99.90
56308;DHT22;42217;50.422;7.210;2023-07-20T11:59:55;26.50;99.90
56308;DHT22;42217;50.422;7.210;2023-07-20T12:02:30;26.20;99.90
56308;DHT22;42217;50.422;7.210;2023-07-20T12:04:56;25.40;99.90
56308;DHT22;42217;50.422;7.210;2023-07-20T12:07:23;25.00;99.90
56308;DHT22;42217;50.422;7.210;2023-07-20T12:10:08;24.90;99.90
56308;DHT22;42217;50.422;7.210;2023-07-20T12:12:35;25.10;99.90
56308;DHT22;42217;50.422;7.210;2023-07-20T12:15:22;25.40;99.90
56308;DHT22;42217;50.422;7.210;2023-07-20T12:17:55;25.60;99.90
56308;DHT22;42217;50.422;7.210;2023-07-20T12:20:39;25.70;99.90
56308;DHT22;42217;50.422;7.210;2023-07-20T12:23:12;25.80;69.20
56308;DHT22;42217;50.422;7.210;2023-07-20T12:25:41;25.60;64.90
56308;DHT22;42217;50.422;7.210;2023-07-20T12:30:38;25.20;99.90
56308;DHT22;42217;50.422;7.210;2023-07-20T12:33:04;24.80;99.90
56308;DHT22;42217;50.422;7.210;2023-07-20T12:35:31;24.60;99.90
56308;DHT22;42217;50.422;7.210;2023-07-20T12:37:57;24.30;99.90
56308;DHT22;42217;50.422;7.210;2023-07-20T12:40:23;24.10;99.90
56308;DHT22;42217;50.422;7.210;2023-07-20T12:42:49;23.90;1.00
56308;DHT22;42217;50.422;7.210;2023-07-20T12:45:14;23.70;1.00
56308;DHT22;42217;50.422;7.210;2023-07-20T12:47:41;23.60;31.60
56308;DHT22;42217;50.422;7.210;2023-07-20T12:50:09;24.00;45.20
56308;DHT22;42217;50.422;7.210;2023-07-20T12:52:39;24.10;31.10
56308;DHT22;42217;50.422;7.210;2023-07-20T12:55:06;24.10;99.90
56308;DHT22;42217;50.422;7.210;2023-07-20T12:57:33;24.10;25.50
56308;DHT22;42217;50.422;7.210;2023-07-20T12:59:59;23.90;66.00
56308;DHT22;42217;50.422;7.210;2023-07-20T13:02:24;23.90;99.90
56308;DHT22;42217;50.422;7.210;2023-07-20T13:04:50;24.00;63.80
56308;DHT22;42217;50.422;7.210;2023-07-20T13:07:16;24.10;42.20
56308;DHT22;42217;50.422;7.210;2023-07-20T13:09:41;23.90;41.90
56308;DHT22;42217;50.422;7.210;2023-07-20T13:12:08;23.90;14.50
56308;DHT22;42217;50.422;7.210;2023-07-20T13:14:33;23.70;78.00
56308;DHT22;42217;50.422;7.210;2023-07-20T13:16:59;23.60;99.90
56308;DHT22;42217;50.422;7.210;2023-07-20T13:19:25;23.50;98.40
56308;DHT22;42217;50.422;7.210;2023-07-20T13:21:50;23.40;99.90
56308;DHT22;42217;50.422;7.210;2023-07-20T13:24:16;23.40;99.90
56308;DHT22;42217;50.422;7.210;2023-07-20T13:26:42;23.20;99.90
56308;DHT22;42217;50.422;7.210;2023-07-20T13:29:08;23.30;99.90
56308;DHT22;42217;50.422;7.210;2023-07-20T13:31:34;23.50;99.90
56308;DHT22;42217;50.422;7.210;2023-07-20T13:33:59;23.90;99.90
56308;DHT22;42217;50.422;7.210;2023-07-20T13:36:25;24.40;43.40
56308;DHT22;42217;50.422;7.210;2023-07-20T13:38:50;24.70;1.00
56308;DHT22;42217;50.422;7.210;2023-07-20T13:41:16;24.80;1.00
56308;DHT22;42217;50.422;7.210;2023-07-20T13:43:42;26.10;99.90
56308;DHT22;42217;50.422;7.210;2023-07-20T13:46:08;28.10;99.90
56308;DHT22;42217;50.422;7.210;2023-07-20T13:48:33;29.20;1.00
56308;DHT22;42217;50.422;7.210;2023-07-20T13:50:59;28.60;1.00
56308;DHT22;42217;50.422;7.210;2023-07-20T13:53:24;27.50;99.90
56308;DHT22;42217;50.422;7.210;2023-07-20T13:55:50;27.10;1.00
56308;DHT22;42217;50.422;7.210;2023-07-20T13:58:17;26.50;1.00
56308;DHT22;42217;50.422;7.210;2023-07-20T14:00:43;26.10;1.00
56308;DHT22;42217;50.422;7.210;2023-07-20T14:03:08;26.10;1.00
56308;DHT22;42217;50.422;7.210;2023-07-20T14:05:35;26.90;1.00
56308;DHT22;42217;50.422;7.210;2023-07-20T14:08:00;27.80;99.90
56308;DHT22;42217;50.422;7.210;2023-07-20T14:10:26;28.10;99.90
56308;DHT22;42217;50.422;7.210;2023-07-20T14:12:52;28.20;99.90
56308;DHT22;42217;50.422;7.210;2023-07-20T14:15:17;28.60;99.90
56308;DHT22;42217;50.422;7.210;2023-07-20T14:17:44;28.90;99.90
56308;DHT22;42217;50.422;7.210;2023-07-20T14:20:10;29.20;99.90
56308;DHT22;42217;50.422;7.210;2023-07-20T14:22:36;29.00;99.90
56308;DHT22;42217;50.422;7.210;2023-07-20T14:25:02;28.60;99.90
56308;DHT22;42217;50.422;7.210;2023-07-20T14:27:28;27.70;99.90
56308;DHT22;42217;50.422;7.210;2023-07-20T14:29:53;26.70;99.90
56308;DHT22;42217;50.422;7.210;2023-07-20T14:32:20;26.20;99.90
56308;DHT22;42217;50.422;7.210;2023-07-20T14:34:46;26.00;99.90
56308;DHT22;42217;50.422;7.210;2023-07-20T14:37:11;26.10;99.90
56308;DHT22;42217;50.422;7.210;2023-07-20T14:39:38;26.50;99.90
56308;DHT22;42217;50.422;7.210;2023-07-20T14:42:04;26.60;99.90
56308;DHT22;42217;50.422;7.210;2023-07-20T14:44:30;26.90;99.90
56308;DHT22;42217;50.422;7.210;2023-07-20T14:46:55;26.60;99.90
56308;DHT22;42217;50.422;7.210;2023-07-20T14:49:21;26.20;99.90
56308;DHT22;42217;50.422;7.210;2023-07-20T14:51:47;25.60;99.90
56308;DHT22;42217;50.422;7.210;2023-07-20T14:54:13;25.60;99.90
56308;DHT22;42217;50.422;7.210;2023-07-20T14:56:39;25.50;99.90
56308;DHT22;42217;50.422;7.210;2023-07-20T14:59:13;25.10;1.00
56308;DHT22;42217;50.422;7.210;2023-07-20T15:01:39;24.40;1.00
56308;DHT22;42217;50.422;7.210;2023-07-20T15:04:05;24.80;1.00
56308;DHT22;42217;50.422;7.210;2023-07-20T15:06:30;26.00;1.00
56308;DHT22;42217;50.422;7.210;2023-07-20T15:08:57;26.10;99.90
56308;DHT22;42217;50.422;7.210;2023-07-20T15:11:23;25.80;99.90
56308;DHT22;42217;50.422;7.210;2023-07-20T15:13:48;25.70;99.90
56308;DHT22;42217;50.422;7.210;2023-07-20T15:16:14;25.80;99.90
56308;DHT22;42217;50.422;7.210;2023-07-20T15:18:40;26.30;99.90
56308;DHT22;42217;50.422;7.210;2023-07-20T15:21:06;26.40;99.90
56308;DHT22;42217;50.422;7.210;2023-07-20T15:23:31;25.60;99.90
56308;DHT22;42217;50.422;7.210;2023-07-20T15:25:57;26.10;99.90
56308;DHT22;42217;50.422;7.210;2023-07-20T15:28:22;26.50;99.90
56308;DHT22;42217;50.422;7.210;2023-07-20T15:30:48;26.20;99.90
56308;DHT22;42217;50.422;7.210;2023-07-20T15:33:14;25.30;99.90
56308;DHT22;42217;50.422;7.210;2023-07-20T15:35:40;24.50;1.00
56308;DHT22;42217;50.422;7.210;2023-07-20T15:38:05;24.30;1.00
56308;DHT22;42217;50.422;7.210;2023-07-20T15:40:32;24.10;1.00
56308;DHT22;42217;50.422;7.210;2023-07-20T15:42:58;24.00;1.00
56308;DHT22;42217;50.422;7.210;2023-07-20T15:45:23;24.00;1.00
56308;DHT22;42217;50.422;7.210;2023-07-20T15:47:49;24.10;1.00